Time;durP1;ratioP1;P1;durP2;ratioP2;P2;SDS_P1;SDS_P2;PMS_P1;PMS_P2;Temp;Humidity;BMP_temperature;BMP_pressure;BME280_temperature;BME280_humidity;BME280_pressure;Samples;Min_cycle;Max_cycle;Signal;HPM_P1;HPM_P2
2022/01/10 00:00:18;;;;;;;3.63;2.60;;;2.10;99.90;;;;;;5015099;28;20802;-74
2022/01/10 00:02:47;;;;;;;2.27;2.07;;;2.10;99.90;;;;;;5014014;28;20449;-72
2022/01/10 00:05:13;;;;;;;4.37;2.97;;;2.10;99.90;;;;;;5015305;28;20443;-76
2022/01/10 00:07:39;;;;;;;7.80;3.30;;;2.00;99.90;;;;;;5015436;28;20479;-76
2022/01/10 00:10:06;;;;;;;4.33;1.97;;;2.10;99.90;;;;;;5015345;28;20414;-74
2022/01/10 00:12:32;;;;;;;8.60;4.07;;;2.10;99.90;;;;;;5000100;28;20475;-74
2022/01/10 00:14:58;;;;;;;6.40;2.80;;;2.00;99.90;;;;;;4983277;28;20418;-74
2022/01/10 00:17:23;;;;;;;11.53;3.00;;;2.10;99.90;;;;;;4980652;28;20188;-76
2022/01/10 00:19:49;;;;;;;7.93;3.33;;;2.10;99.90;;;;;;4983253;28;20684;-75
2022/01/10 00:22:14;;;;;;;8.10;2.07;;;2.10;99.90;;;;;;4984446;28;20202;-75
2022/01/10 00:24:40;;;;;;;11.60;2.50;;;2.10;99.90;;;;;;4982832;28;20190;-75
2022/01/10 00:27:05;;;;;;;1.93;1.83;;;2.10;99.90;;;;;;4981670;28;20178;-75
2022/01/10 00:29:31;;;;;;;6.00;2.90;;;2.10;99.90;;;;;;4975249;28;20183;-75
2022/01/10 00:31:58;;;;;;;3.60;1.80;;;2.10;99.90;;;;;;4975024;28;20236;-75
2022/01/10 00:34:25;;;;;;;3.53;1.97;;;2.10;99.90;;;;;;4974156;28;20434;-75
2022/01/10 00:36:50;;;;;;;3.53;2.37;;;2.10;99.90;;;;;;4975196;28;20427;-75
2022/01/10 00:39:16;;;;;;;6.63;2.03;;;2.10;99.90;;;;;;4974439;28;20975;-75
2022/01/10 00:41:41;;;;;;;8.47;2.03;;;2.10;99.90;;;;;;4975061;28;20222;-75
2022/01/10 00:44:09;;;;;;;3.23;2.00;;;2.10;99.90;;;;;;4975038;28;20175;-75
2022/01/10 00:46:35;;;;;;;2.70;1.80;;;2.10;99.90;;;;;;4975255;28;20177;-75
2022/01/10 00:49:01;;;;;;;11.90;2.40;;;2.10;99.90;;;;;;4975022;28;20434;-74
2022/01/10 00:51:26;;;;;;;3.23;2.43;;;2.10;99.90;;;;;;4974839;28;20212;-75
2022/01/10 00:53:52;;;;;;;3.70;2.30;;;2.20;99.90;;;;;;4974815;28;20663;-75
2022/01/10 00:56:19;;;;;;;3.93;2.83;;;2.10;99.90;;;;;;4974908;28;20204;-75
2022/01/10 00:58:44;;;;;;;10.93;3.53;;;2.10;99.90;;;;;;4975045;28;20242;-75
2022/01/10 05:31:13;;;;;;;8.30;5.47;;;2.50;99.90;;;;;;5681957;23;20938;-74
2022/01/10 05:33:39;;;;;;;9.13;6.07;;;2.50;99.90;;;;;;4952106;29;20463;-73
2022/01/10 05:36:05;;;;;;;8.20;5.20;;;2.50;99.90;;;;;;4954297;29;20215;-77
2022/01/10 05:38:30;;;;;;;7.93;5.50;;;2.50;99.90;;;;;;4955118;28;20265;-77
2022/01/10 05:40:56;;;;;;;7.83;5.20;;;2.50;99.90;;;;;;4953383;28;20215;-74
2022/01/10 05:43:21;;;;;;;13.30;5.47;;;2.50;99.90;;;;;;4954935;29;20235;-75
2022/01/10 05:45:47;;;;;;;7.13;5.33;;;2.50;99.90;;;;;;4954833;29;20647;-74
2022/01/10 05:48:21;;;;;;;7.80;5.40;;;2.50;99.90;;;;;;4954903;29;20181;-75
2022/01/10 05:50:48;;;;;;;9.03;4.50;;;2.50;99.90;;;;;;4954652;28;20227;-75
2022/01/10 05:53:13;;;;;;;6.90;5.63;;;2.50;99.90;;;;;;4954624;28;20535;-74
2022/01/10 05:55:39;;;;;;;11.77;5.90;;;2.50;99.90;;;;;;4955033;28;20540;-74
2022/01/10 05:58:06;;;;;;;8.43;5.07;;;2.50;99.90;;;;;;4954597;29;20185;-74
2022/01/10 06:00:32;;;;;;;13.67;5.53;;;2.60;99.90;;;;;;4954379;28;20276;-74
2022/01/10 06:02:57;;;;;;;8.33;5.17;;;2.70;99.90;;;;;;4954217;28;20417;-74
2022/01/10 06:05:29;;;;;;;10.40;4.77;;;2.70;99.90;;;;;;4954676;29;20401;-75
2022/01/10 06:07:54;;;;;;;15.80;6.23;;;2.70;99.90;;;;;;4954512;28;20201;-74
2022/01/10 06:10:20;;;;;;;11.50;6.20;;;2.70;99.90;;;;;;4954299;29;20432;-74
2022/01/10 06:12:45;;;;;;;11.37;7.40;;;2.70;99.90;;;;;;4954205;28;20574;-73
2022/01/10 06:15:11;;;;;;;10.77;7.77;;;2.70;99.90;;;;;;4952977;29;20203;-74
2022/01/10 06:17:36;;;;;;;16.03;7.60;;;2.70;99.90;;;;;;4954353;29;20224;-74
2022/01/10 06:20:03;;;;;;;18.60;10.03;;;2.70;99.90;;;;;;4953846;29;20194;-74
2022/01/10 06:22:29;;;;;;;20.60;10.00;;;2.70;99.90;;;;;;4954227;28;20197;-75
2022/01/10 06:24:55;;;;;;;17.13;9.70;;;2.70;99.90;;;;;;4953853;29;20410;-75
2022/01/10 06:27:20;;;;;;;20.23;10.00;;;2.70;99.90;;;;;;4952764;29;20601;-75
2022/01/10 06:29:46;;;;;;;25.47;12.23;;;2.70;99.90;;;;;;4953774;29;20391;-75
2022/01/10 06:32:11;;;;;;;20.90;11.00;;;2.80;99.90;;;;;;4953557;28;20593;-75
2022/01/10 06:34:37;;;;;;;20.57;11.00;;;2.90;99.90;;;;;;4953649;29;20212;-75
2022/01/10 06:37:03;;;;;;;18.43;10.70;;;2.90;99.90;;;;;;4953478;28;20194;-74
2022/01/10 06:39:28;;;;;;;17.60;10.27;;;2.80;99.90;;;;;;4953725;28;20204;-75
2022/01/10 06:41:54;;;;;;;22.03;11.07;;;2.90;99.90;;;;;;4952964;28;20802;-75
2022/01/10 06:44:19;;;;;;;25.63;11.53;;;2.80;99.90;;;;;;4953108;29;20210;-76
2022/01/10 06:46:45;;;;;;;23.53;11.83;;;2.80;99.90;;;;;;4953337;29;20259;-75
2022/01/10 06:49:10;;;;;;;21.70;12.63;;;2.90;99.90;;;;;;4953087;29;20220;-75
2022/01/10 06:51:36;;;;;;;25.60;11.40;;;2.90;99.90;;;;;;4953121;28;20204;-76
2022/01/10 06:54:01;;;;;;;27.50;13.23;;;2.90;99.90;;;;;;4952931;29;20191;-76
2022/01/10 06:56:27;;;;;;;27.47;13.63;;;2.90;99.90;;;;;;4953470;29;20191;-75
2022/01/10 06:58:53;;;;;;;28.37;13.33;;;2.80;99.90;;;;;;4953051;29;20328;-76
2022/01/10 07:01:20;;;;;;;30.67;12.57;;;2.90;99.90;;;;;;4953106;28;20216;-75
2022/01/10 07:03:46;;;;;;;28.00;13.03;;;2.90;99.90;;;;;;4953241;28;20444;-75
2022/01/10 07:06:11;;;;;;;25.23;12.20;;;2.90;99.90;;;;;;4953422;29;20395;-75
2022/01/10 07:08:37;;;;;;;24.27;13.53;;;2.80;99.90;;;;;;4953469;29;20180;-75
2022/01/10 07:11:02;;;;;;;27.57;12.67;;;2.80;99.90;;;;;;4953107;29;20200;-73
2022/01/10 07:13:28;;;;;;;23.70;11.70;;;2.90;99.90;;;;;;4953178;29;20202;-74
2022/01/10 07:15:54;;;;;;;28.30;12.77;;;3.00;99.90;;;;;;4953190;29;20206;-73
2022/01/10 07:18:19;;;;;;;28.80;13.20;;;2.90;99.90;;;;;;4953434;28;20181;-74
2022/01/10 07:20:45;;;;;;;26.90;11.27;;;2.90;99.90;;;;;;4952990;29;20646;-75
2022/01/10 07:23:10;;;;;;;22.60;12.60;;;2.90;99.90;;;;;;4953251;29;20637;-74
2022/01/10 07:25:36;;;;;;;27.03;12.60;;;2.90;99.90;;;;;;4953304;29;20668;-74
2022/01/10 07:28:02;;;;;;;24.83;12.57;;;2.90;99.90;;;;;;4953249;28;20196;-75
2022/01/10 07:30:28;;;;;;;20.97;13.13;;;2.90;99.90;;;;;;4953090;29;20929;-74
2022/01/10 07:32:53;;;;;;;29.63;13.40;;;2.90;99.90;;;;;;4953057;29;20449;-75
2022/01/10 07:35:19;;;;;;;26.90;13.40;;;2.90;99.90;;;;;;4953242;29;20182;-75
2022/01/10 07:37:44;;;;;;;21.53;12.07;;;2.90;99.90;;;;;;4953382;29;20640;-75
2022/01/10 07:40:11;;;;;;;21.73;10.73;;;2.90;99.90;;;;;;4952854;29;20653;-75
2022/01/10 07:42:36;;;;;;;22.20;12.60;;;2.90;99.90;;;;;;4953157;28;20208;-75
2022/01/10 07:45:03;;;;;;;24.00;11.97;;;2.90;99.90;;;;;;4952817;29;20400;-75
2022/01/10 07:47:29;;;;;;;26.17;12.77;;;3.00;99.90;;;;;;4954422;28;20188;-75
2022/01/10 07:49:54;;;;;;;22.93;12.07;;;2.90;99.90;;;;;;4956803;29;20423;-73
2022/01/10 07:52:21;;;;;;;26.23;12.57;;;2.90;99.90;;;;;;4956870;29;20223;-74
2022/01/10 07:54:47;;;;;;;21.03;11.53;;;3.00;99.90;;;;;;4956913;28;20181;-74
2022/01/10 07:57:12;;;;;;;25.57;13.20;;;3.00;99.90;;;;;;4956786;29;20488;-74
2022/01/10 07:59:38;;;;;;;24.47;13.30;;;3.00;99.90;;;;;;4956988;29;20597;-73
2022/01/10 08:02:04;;;;;;;28.20;13.20;;;3.10;99.90;;;;;;4956490;28;20287;-74
2022/01/10 08:04:29;;;;;;;25.97;13.10;;;3.10;99.90;;;;;;4956506;29;20180;-74
2022/01/10 08:06:54;;;;;;;34.13;13.57;;;3.10;99.90;;;;;;4956664;29;20201;-74
2022/01/10 08:09:20;;;;;;;23.40;12.93;;;3.10;99.90;;;;;;4956482;29;20176;-74
2022/01/10 08:11:46;;;;;;;31.83;14.77;;;3.10;99.90;;;;;;4956336;29;20220;-73
2022/01/10 08:14:12;;;;;;;28.00;13.20;;;3.10;99.90;;;;;;4956171;28;20287;-74
2022/01/10 08:16:37;;;;;;;34.33;14.23;;;3.10;99.90;;;;;;4956431;29;20518;-74
2022/01/10 08:19:03;;;;;;;30.60;14.90;;;3.10;99.90;;;;;;4956161;29;20174;-74
2022/01/10 08:21:28;;;;;;;33.37;12.40;;;3.10;99.90;;;;;;4956117;29;20212;-74
2022/01/10 08:23:54;;;;;;;34.90;13.70;;;3.10;99.90;;;;;;4955914;29;20179;-74
2022/01/10 08:26:21;;;;;;;26.67;14.17;;;3.10;99.90;;;;;;4956237;29;20260;-74
2022/01/10 08:28:46;;;;;;;32.97;14.57;;;3.20;99.90;;;;;;4956140;28;20551;-74
2022/01/10 08:31:12;;;;;;;24.97;13.57;;;3.20;99.90;;;;;;4953541;29;20546;-73
2022/01/10 08:33:38;;;;;;;23.40;13.00;;;3.30;99.90;;;;;;4955863;28;20205;-73
2022/01/10 08:36:04;;;;;;;23.23;13.80;;;3.30;99.90;;;;;;4955228;28;20236;-74
2022/01/10 08:38:29;;;;;;;28.03;15.00;;;3.30;99.90;;;;;;4956047;29;20387;-74
2022/01/10 08:40:55;;;;;;;41.10;16.03;;;3.30;99.90;;;;;;4955337;29;20209;-73
2022/01/10 08:43:20;;;;;;;28.13;14.50;;;3.40;99.90;;;;;;4955727;29;20174;-74
2022/01/10 08:45:46;;;;;;;28.53;13.70;;;3.40;99.90;;;;;;4955303;29;20177;-74
2022/01/10 08:48:12;;;;;;;32.00;15.10;;;3.40;99.90;;;;;;4955833;29;20673;-74
2022/01/10 08:50:37;;;;;;;32.03;14.67;;;3.40;99.90;;;;;;4955520;29;20579;-74
2022/01/10 08:53:06;;;;;;;27.63;14.50;;;3.40;99.90;;;;;;4955521;28;20176;-73
2022/01/10 08:55:31;;;;;;;25.77;13.70;;;3.40;99.90;;;;;;4955354;28;20179;-74
2022/01/10 08:57:57;;;;;;;30.07;14.90;;;3.40;99.90;;;;;;4955351;28;20474;-74
2022/01/10 09:00:23;;;;;;;25.93;14.17;;;3.40;99.90;;;;;;4954372;28;20221;-74
2022/01/10 09:02:48;;;;;;;29.10;14.57;;;3.40;99.90;;;;;;4954995;29;20587;-74
2022/01/10 09:05:14;;;;;;;29.13;12.90;;;3.40;99.90;;;;;;4955069;29;20265;-74
2022/01/10 09:07:40;;;;;;;25.60;14.83;;;3.50;99.90;;;;;;4955421;29;20305;-74
2022/01/10 09:10:06;;;;;;;27.37;12.77;;;3.50;99.90;;;;;;4955170;28;20705;-74
2022/01/10 09:12:32;;;;;;;26.70;15.27;;;3.50;99.90;;;;;;4955269;28;20418;-74
2022/01/10 09:14:57;;;;;;;35.00;14.70;;;3.60;99.90;;;;;;4954124;29;20583;-74
2022/01/10 09:17:23;;;;;;;29.50;14.30;;;3.60;99.90;;;;;;4955104;28;20171;-74
2022/01/10 09:19:49;;;;;;;30.50;14.53;;;3.60;99.90;;;;;;4955005;29;20175;-73
2022/01/10 09:22:15;;;;;;;33.90;15.30;;;3.60;99.90;;;;;;4955004;28;20238;-74
2022/01/10 09:24:40;;;;;;;25.43;14.03;;;3.60;99.90;;;;;;4953392;29;20655;-75
2022/01/10 09:27:06;;;;;;;32.10;14.10;;;3.70;99.90;;;;;;4954871;28;20424;-74
2022/01/10 09:29:32;;;;;;;30.37;14.40;;;3.70;99.90;;;;;;4955244;29;20173;-74
2022/01/10 09:31:57;;;;;;;21.30;12.03;;;3.80;99.90;;;;;;4954931;28;20292;-74
2022/01/10 09:34:23;;;;;;;21.93;11.57;;;3.90;99.90;;;;;;4954487;29;20719;-74
2022/01/10 09:36:48;;;;;;;21.17;12.33;;;3.80;99.90;;;;;;4954403;29;20270;-74
2022/01/10 09:39:14;;;;;;;21.93;11.97;;;3.80;99.90;;;;;;4954804;29;20190;-74
2022/01/10 09:41:41;;;;;;;26.30;10.93;;;3.90;99.90;;;;;;4954448;28;20213;-74
2022/01/10 09:44:06;;;;;;;20.03;10.53;;;3.90;99.90;;;;;;4954291;29;20440;-75
2022/01/10 09:46:33;;;;;;;19.43;11.37;;;4.00;99.90;;;;;;4954656;29;20430;-74
2022/01/10 09:49:00;;;;;;;28.23;13.60;;;4.00;99.90;;;;;;4954677;28;20250;-74
2022/01/10 09:51:27;;;;;;;23.97;12.03;;;3.90;99.90;;;;;;4953381;28;20458;-74
2022/01/10 09:53:54;;;;;;;24.83;11.00;;;4.00;99.90;;;;;;4954170;28;20789;-74
2022/01/10 09:56:20;;;;;;;22.60;12.50;;;4.00;99.90;;;;;;4954855;28;20807;-75
2022/01/10 09:58:46;;;;;;;22.03;12.83;;;4.10;99.90;;;;;;4954185;29;20471;-75
2022/01/10 10:01:14;;;;;;;26.43;12.50;;;4.10;99.90;;;;;;4954175;28;20202;-75
2022/01/10 10:03:44;;;;;;;33.10;13.90;;;4.10;99.90;;;;;;4954289;28;20486;-75
2022/01/10 10:06:09;;;;;;;22.13;13.20;;;4.20;99.90;;;;;;4954053;28;20421;-75
2022/01/10 10:08:38;;;;;;;27.77;12.60;;;4.30;99.90;;;;;;4954128;29;20886;-74
2022/01/10 10:11:07;;;;;;;22.93;11.50;;;4.20;99.90;;;;;;4953695;28;20200;-75
2022/01/10 10:13:56;;;;;;;21.97;12.67;;;4.30;99.90;;;;;;4954241;28;20445;-74
2022/01/10 10:16:25;;;;;;;23.83;13.03;;;4.30;99.90;;;;;;4953819;28;20844;-75
2022/01/10 10:18:51;;;;;;;25.57;13.80;;;4.30;99.90;;;;;;4952718;29;20422;-75
2022/01/10 10:21:21;;;;;;;25.80;12.27;;;4.30;99.90;;;;;;4953879;28;20495;-74
2022/01/10 10:23:48;;;;;;;21.63;13.30;;;4.20;99.90;;;;;;4953589;28;20752;-73
2022/01/10 10:26:20;;;;;;;24.67;13.37;;;4.20;99.90;;;;;;4953979;28;20777;-73
2022/01/10 10:28:47;;;;;;;29.20;13.50;;;4.30;99.90;;;;;;4954190;28;20417;-74
2022/01/10 10:31:22;;;;;;;24.67;13.37;;;4.40;99.90;;;;;;4952159;28;20444;-74
2022/01/10 10:33:49;;;;;;;19.60;12.37;;;4.50;99.90;;;;;;4953733;28;20502;-74
2022/01/10 10:36:15;;;;;;;21.57;12.40;;;4.60;99.90;;;;;;4953739;28;20396;-72
2022/01/10 10:38:41;;;;;;;23.50;13.67;;;4.70;99.90;;;;;;4953763;29;20432;-73
2022/01/10 10:41:07;;;;;;;36.10;14.17;;;4.90;99.90;;;;;;4953562;28;20226;-74
2022/01/10 10:43:34;;;;;;;24.53;12.57;;;4.80;99.90;;;;;;4953571;29;20418;-74
2022/01/10 10:46:02;;;;;;;22.67;14.50;;;4.90;99.90;;;;;;4953462;28;20176;-73
2022/01/10 10:48:29;;;;;;;20.17;14.17;;;5.00;99.90;;;;;;4953728;28;20418;-74
2022/01/10 10:50:59;;;;;;;22.80;14.00;;;5.10;99.90;;;;;;4953513;28;20440;-75
2022/01/10 10:53:28;;;;;;;24.57;13.33;;;5.10;99.90;;;;;;4953965;28;20450;-75
2022/01/10 10:55:57;;;;;;;30.17;13.43;;;5.00;99.90;;;;;;4954035;28;20430;-74
2022/01/10 10:58:23;;;;;;;18.90;12.63;;;5.00;99.90;;;;;;4953582;28;20510;-74
2022/01/10 11:00:49;;;;;;;26.73;13.37;;;5.00;99.90;;;;;;4953122;28;20548;-73
2022/01/10 11:03:17;;;;;;;29.97;15.20;;;5.00;99.90;;;;;;4953364;28;20623;-73
2022/01/10 11:05:44;;;;;;;31.67;16.60;;;4.90;99.90;;;;;;4953385;28;20432;-73
2022/01/10 11:08:10;;;;;;;26.43;15.67;;;4.90;99.90;;;;;;4953365;28;20838;-73
2022/01/10 11:10:37;;;;;;;20.93;14.73;;;5.00;99.90;;;;;;4953290;28;20393;-73
2022/01/10 11:13:04;;;;;;;31.37;15.90;;;5.00;99.90;;;;;;4953240;28;20884;-73
2022/01/10 11:15:31;;;;;;;26.73;14.67;;;5.10;99.90;;;;;;4952128;29;20869;-73
2022/01/10 11:18:01;;;;;;;24.50;15.50;;;5.10;99.90;;;;;;4952076;29;20411;-74
2022/01/10 11:20:28;;;;;;;28.10;14.90;;;5.10;99.90;;;;;;4953094;28;20483;-72
2022/01/10 11:22:57;;;;;;;28.23;14.77;;;5.10;99.90;;;;;;4953700;28;20430;-74
2022/01/10 11:25:29;;;;;;;24.90;14.50;;;5.20;99.90;;;;;;4958445;28;20763;-74
2022/01/10 11:28:06;;;;;;;25.50;13.77;;;5.10;99.90;;;;;;4957338;29;20424;-73
2022/01/10 11:30:40;;;;;;;18.97;12.40;;;5.00;99.90;;;;;;4956936;28;20393;-73
2022/01/10 11:33:15;;;;;;;23.43;13.47;;;5.10;99.90;;;;;;4957153;28;20419;-74
2022/01/10 11:36:01;;;;;;;20.73;11.90;;;5.20;99.90;;;;;;4956825;28;20415;-74
2022/01/10 11:38:43;;;;;;;19.13;12.40;;;5.40;99.90;;;;;;4958957;28;20419;-74
2022/01/10 11:41:20;;;;;;;22.63;12.70;;;5.50;99.90;;;;;;4957364;28;20555;-74
2022/01/10 11:43:47;;;;;;;18.50;12.37;;;5.70;99.90;;;;;;4957337;28;20425;-74
2022/01/10 11:46:15;;;;;;;22.50;13.20;;;5.80;99.90;;;;;;4956827;28;20414;-75
2022/01/10 11:48:54;;;;;;;29.73;14.10;;;5.80;99.90;;;;;;4957038;28;20466;-75
2022/01/10 11:51:23;;;;;;;22.23;14.00;;;5.80;99.90;;;;;;4956700;28;20789;-74
2022/01/10 11:54:13;;;;;;;23.63;14.37;;;5.60;99.90;;;;;;4956495;28;20499;-74
2022/01/10 11:56:41;;;;;;;24.23;13.20;;;5.40;99.90;;;;;;4959339;29;20427;-74
2022/01/10 11:59:18;;;;;;;18.57;13.33;;;5.60;99.90;;;;;;4960145;29;20427;-74
2022/01/10 12:01:51;;;;;;;17.63;12.10;;;5.60;99.90;;;;;;4956660;28;20954;-74
2022/01/10 12:04:18;;;;;;;26.67;13.13;;;5.50;99.90;;;;;;4956419;28;20983;-74
2022/01/10 12:06:44;;;;;;;21.93;11.70;;;5.50;99.90;;;;;;4956193;28;20420;-74
2022/01/10 12:09:11;;;;;;;22.63;13.53;;;5.40;99.90;;;;;;4955779;28;20481;-74
2022/01/10 12:11:39;;;;;;;23.90;13.30;;;5.30;99.90;;;;;;4956446;28;20973;-74
2022/01/10 12:14:06;;;;;;;25.50;14.43;;;5.20;99.90;;;;;;4955567;28;20416;-74
2022/01/10 12:16:33;;;;;;;22.60;12.80;;;5.10;99.90;;;;;;4956554;28;20458;-73
2022/01/10 12:18:59;;;;;;;26.70;15.80;;;5.10;99.90;;;;;;4956124;28;20443;-73
2022/01/10 12:21:26;;;;;;;24.33;12.67;;;5.10;99.90;;;;;;4954011;28;20553;-74
2022/01/10 12:23:52;;;;;;;21.37;12.83;;;5.10;99.90;;;;;;4948337;29;20427;-73
2022/01/10 12:26:20;;;;;;;24.87;14.43;;;5.10;99.90;;;;;;4952650;28;20947;-74
2022/01/10 12:28:50;;;;;;;22.57;12.83;;;5.10;99.90;;;;;;4952424;28;20876;-74
2022/01/10 12:31:17;;;;;;;29.70;13.37;;;5.10;99.90;;;;;;4951424;28;20878;-74
2022/01/10 12:33:43;;;;;;;23.30;13.83;;;5.10;99.90;;;;;;4952569;28;20653;-72
2022/01/10 12:36:09;;;;;;;28.33;14.50;;;5.20;99.90;;;;;;4953094;29;20507;-73
2022/01/10 12:38:34;;;;;;;21.77;12.80;;;5.20;99.90;;;;;;4956284;29;20554;-73
2022/01/10 12:41:00;;;;;;;17.07;12.93;;;5.20;99.90;;;;;;4955863;28;20215;-73
2022/01/10 12:43:25;;;;;;;29.83;13.73;;;5.30;99.90;;;;;;4956381;29;20179;-73
2022/01/10 12:45:51;;;;;;;21.60;14.47;;;5.30;99.90;;;;;;4955635;29;20175;-73
2022/01/10 12:48:16;;;;;;;21.90;13.77;;;5.30;99.90;;;;;;4956173;29;20180;-73
2022/01/10 12:50:48;;;;;;;29.07;13.57;;;5.40;99.90;;;;;;4955543;28;20181;-73
2022/01/10 12:53:15;;;;;;;27.30;14.47;;;5.50;99.90;;;;;;4955912;28;20183;-74
2022/01/10 12:55:41;;;;;;;25.97;14.73;;;5.50;99.90;;;;;;4955725;28;20458;-74
2022/01/10 12:58:07;;;;;;;33.57;14.50;;;5.50;99.90;;;;;;4955818;28;21080;-74
2022/01/10 13:00:33;;;;;;;26.63;13.83;;;5.60;99.90;;;;;;4955913;28;20463;-73
2022/01/10 13:03:00;;;;;;;23.50;13.53;;;5.60;99.90;;;;;;4955836;28;20656;-74
2022/01/10 13:05:26;;;;;;;25.87;15.17;;;5.60;99.90;;;;;;4955654;28;20430;-73
2022/01/10 13:07:54;;;;;;;29.13;13.13;;;5.50;99.90;;;;;;4956112;29;20931;-75
2022/01/10 13:10:26;;;;;;;28.67;14.50;;;5.50;99.90;;;;;;4955444;28;20521;-75
2022/01/10 13:13:01;;;;;;;21.77;12.70;;;5.60;99.90;;;;;;4955362;28;20436;-75
2022/01/10 13:15:39;;;;;;;29.60;14.13;;;5.60;99.90;;;;;;4955352;28;20415;-75
2022/01/10 13:18:05;;;;;;;23.00;14.97;;;5.60;99.90;;;;;;4955350;28;20770;-75
2022/01/10 13:20:33;;;;;;;20.47;13.87;;;5.70;99.90;;;;;;4955115;28;20436;-76
2022/01/10 13:23:08;;;;;;;23.50;13.70;;;5.80;99.90;;;;;;4959395;28;20435;-76
2022/01/10 13:25:40;;;;;;;15.57;12.47;;;5.60;99.90;;;;;;4955037;28;20514;-75
2022/01/10 13:28:09;;;;;;;16.90;12.40;;;5.70;99.90;;;;;;4955183;28;20891;-75
2022/01/10 13:30:39;;;;;;;15.83;13.00;;;5.70;99.90;;;;;;4955000;28;20395;-74
2022/01/10 13:33:07;;;;;;;23.33;12.03;;;5.70;99.90;;;;;;4955670;28;20396;-74
2022/01/10 13:35:36;;;;;;;27.97;14.00;;;5.80;99.90;;;;;;4955030;28;20419;-75
2022/01/10 13:38:10;;;;;;;22.00;12.83;;;5.80;99.90;;;;;;4954740;28;20478;-74
2022/01/10 13:40:45;;;;;;;20.90;13.47;;;5.70;99.90;;;;;;4953488;28;20455;-74
2022/01/10 13:43:14;;;;;;;20.73;12.10;;;5.70;99.90;;;;;;4954682;28;20460;-74
2022/01/10 13:45:54;;;;;;;31.17;13.57;;;5.70;99.90;;;;;;4954073;28;20416;-73
2022/01/10 13:48:21;;;;;;;27.90;11.97;;;5.70;99.90;;;;;;4953395;28;20873;-73
2022/01/10 13:50:53;;;;;;;19.07;12.27;;;5.70;99.90;;;;;;4953176;28;20433;-72
2022/01/10 13:53:43;;;;;;;25.03;13.80;;;5.60;99.90;;;;;;4953406;28;21147;-72
2022/01/10 13:56:11;;;;;;;24.73;13.60;;;5.60;99.90;;;;;;4953059;29;20485;-73
2022/01/10 13:58:48;;;;;;;27.70;12.50;;;5.50;99.90;;;;;;4953544;28;20396;-74
2022/01/10 14:01:29;;;;;;;22.33;13.47;;;5.40;99.90;;;;;;4952957;28;20471;-73
2022/01/10 14:03:57;;;;;;;19.00;11.83;;;5.30;99.90;;;;;;4954006;28;20489;-73
2022/01/10 14:06:25;;;;;;;20.77;12.53;;;5.40;99.90;;;;;;4954167;28;20386;-74
2022/01/10 14:08:53;;;;;;;34.93;13.60;;;5.40;99.90;;;;;;4952782;29;20418;-74
2022/01/10 14:11:22;;;;;;;18.60;12.60;;;5.30;99.90;;;;;;4950995;28;20443;-74
2022/01/10 14:13:56;;;;;;;24.43;12.53;;;5.40;99.90;;;;;;4952145;28;21141;-73
2022/01/10 14:16:24;;;;;;;20.43;10.87;;;5.40;99.90;;;;;;4954105;28;20459;-73
2022/01/10 14:18:50;;;;;;;24.03;10.77;;;5.30;99.90;;;;;;4953915;28;20416;-74
2022/01/10 14:21:18;;;;;;;27.73;12.30;;;5.30;99.90;;;;;;4953837;28;20502;-74
2022/01/10 14:23:44;;;;;;;24.97;14.37;;;5.30;99.90;;;;;;4952334;28;20423;-73
2022/01/10 14:26:12;;;;;;;20.73;11.07;;;5.30;99.90;;;;;;4953758;28;20418;-73
2022/01/10 14:28:39;;;;;;;22.40;12.70;;;5.20;99.90;;;;;;4954018;28;20410;-74
2022/01/10 14:31:05;;;;;;;24.20;11.43;;;5.20;99.90;;;;;;4953416;28;20626;-74
2022/01/10 14:33:31;;;;;;;24.73;12.13;;;5.20;99.90;;;;;;4949576;28;20978;-73
2022/01/10 14:35:57;;;;;;;20.13;11.20;;;5.20;99.90;;;;;;4953650;29;20419;-73
2022/01/10 14:38:27;;;;;;;23.67;11.43;;;5.20;99.90;;;;;;4953889;28;20179;-74
2022/01/10 14:40:52;;;;;;;17.50;10.93;;;5.20;99.90;;;;;;4953126;28;20471;-74
2022/01/10 14:43:18;;;;;;;21.03;12.43;;;5.20;99.90;;;;;;4952171;29;20781;-73
2022/01/10 14:45:44;;;;;;;20.00;12.70;;;5.20;99.90;;;;;;4951689;29;20187;-73
2022/01/10 14:48:10;;;;;;;24.67;12.53;;;5.20;99.90;;;;;;4952425;28;20795;-73
2022/01/10 14:50:36;;;;;;;26.33;13.03;;;5.20;99.90;;;;;;4948608;28;20489;-74
2022/01/10 14:53:03;;;;;;;20.20;12.87;;;5.10;99.90;;;;;;4949786;28;20187;-73
2022/01/10 14:55:29;;;;;;;21.77;12.90;;;5.10;99.90;;;;;;4949032;28;20433;-74
2022/01/10 14:57:54;;;;;;;18.90;11.50;;;5.10;99.90;;;;;;4950384;28;20415;-74
2022/01/10 15:00:20;;;;;;;21.40;12.50;;;5.00;99.90;;;;;;4950280;29;20235;-73
2022/01/10 15:02:45;;;;;;;26.67;13.60;;;5.00;99.90;;;;;;4950801;28;20204;-72
2022/01/10 15:05:11;;;;;;;20.10;12.43;;;5.00;99.90;;;;;;4949918;29;20183;-73
2022/01/10 15:07:36;;;;;;;28.47;12.23;;;4.90;99.90;;;;;;4948990;29;20188;-73
2022/01/10 15:10:03;;;;;;;24.87;14.27;;;4.90;99.90;;;;;;4949808;29;20187;-73
2022/01/10 15:12:28;;;;;;;21.23;12.07;;;4.90;99.90;;;;;;4947499;28;20287;-73
2022/01/10 15:14:55;;;;;;;20.03;11.30;;;4.80;99.90;;;;;;4948411;29;21040;-73
2022/01/10 15:17:21;;;;;;;21.30;12.50;;;4.80;99.90;;;;;;4949927;28;20202;-73
2022/01/10 15:19:47;;;;;;;22.80;13.07;;;4.80;99.90;;;;;;4950413;29;20473;-74
2022/01/10 15:22:12;;;;;;;27.73;14.47;;;4.80;99.90;;;;;;4950123;28;20481;-73
2022/01/10 15:24:39;;;;;;;24.20;12.10;;;4.80;99.90;;;;;;4950284;29;20191;-74
2022/01/10 15:27:05;;;;;;;25.77;13.77;;;4.80;99.90;;;;;;4949954;28;20195;-73
2022/01/10 15:29:31;;;;;;;27.87;15.30;;;4.70;99.90;;;;;;4949107;29;20430;-73
2022/01/10 15:31:56;;;;;;;28.00;13.73;;;4.60;99.90;;;;;;4949250;28;20500;-73
2022/01/10 15:34:22;;;;;;;22.50;13.00;;;4.50;99.90;;;;;;4947780;29;20186;-74
2022/01/10 15:36:48;;;;;;;25.90;14.30;;;4.50;99.90;;;;;;4948707;28;20206;-73
2022/01/10 15:39:13;;;;;;;22.80;13.20;;;4.40;99.90;;;;;;4947579;29;20823;-74
2022/01/10 15:41:42;;;;;;;26.90;13.70;;;4.30;99.90;;;;;;4930440;29;20707;-73
2022/01/10 15:44:07;;;;;;;19.67;12.30;;;4.30;99.90;;;;;;4930783;29;20197;-73
2022/01/10 15:46:33;;;;;;;29.87;14.90;;;4.20;99.90;;;;;;4930930;29;20913;-73
2022/01/10 15:48:59;;;;;;;27.80;15.30;;;4.10;99.90;;;;;;4931124;29;20485;-74
2022/01/10 15:51:24;;;;;;;26.50;13.23;;;4.10;99.90;;;;;;4940694;28;20223;-73
2022/01/10 15:53:50;;;;;;;22.63;12.70;;;4.00;99.90;;;;;;4947453;29;20685;-73
2022/01/10 15:56:15;;;;;;;30.43;12.80;;;3.90;99.90;;;;;;4948173;29;20246;-73
2022/01/10 15:58:41;;;;;;;25.03;14.90;;;3.90;99.90;;;;;;4947561;29;20997;-73
2022/01/10 16:01:08;;;;;;;24.27;15.10;;;3.80;99.90;;;;;;4949875;28;20653;-73
2022/01/10 16:03:34;;;;;;;29.87;13.77;;;3.80;99.90;;;;;;4949695;28;20178;-74
2022/01/10 16:06:00;;;;;;;20.97;13.03;;;3.70;99.90;;;;;;4949110;28;20970;-73
2022/01/10 16:08:26;;;;;;;22.37;13.80;;;3.60;99.90;;;;;;4949017;28;20430;-73
2022/01/10 16:10:51;;;;;;;30.63;15.30;;;3.50;99.90;;;;;;4952191;28;20330;-74
2022/01/10 16:13:22;;;;;;;29.37;13.40;;;3.50;99.90;;;;;;4954145;29;20214;-76
2022/01/10 16:15:49;;;;;;;27.60;13.30;;;3.40;99.90;;;;;;4952098;28;20543;-74
2022/01/10 16:18:15;;;;;;;31.70;14.00;;;3.30;99.90;;;;;;4955935;29;20437;-74
2022/01/10 16:20:41;;;;;;;26.67;13.83;;;3.30;99.90;;;;;;4956171;28;20970;-74
2022/01/10 16:23:07;;;;;;;22.67;12.47;;;3.20;99.90;;;;;;4955883;29;20460;-74
2022/01/10 16:25:33;;;;;;;24.60;13.30;;;3.20;99.90;;;;;;4955299;28;20204;-74
2022/01/10 16:27:59;;;;;;;29.70;14.87;;;3.10;99.90;;;;;;4956086;28;20421;-73
2022/01/10 16:30:27;;;;;;;31.50;12.77;;;3.00;99.90;;;;;;4955402;28;20873;-74
2022/01/10 16:32:53;;;;;;;29.13;12.43;;;3.00;99.90;;;;;;4955589;28;20451;-74
2022/01/10 16:35:18;;;;;;;30.93;14.33;;;2.90;99.90;;;;;;4955485;28;20400;-74
2022/01/10 16:37:44;;;;;;;29.67;13.93;;;2.80;99.90;;;;;;4955911;29;20717;-74
2022/01/10 16:40:09;;;;;;;26.43;13.77;;;2.80;99.90;;;;;;4955779;29;20177;-74
2022/01/10 16:42:36;;;;;;;22.33;12.30;;;2.70;99.90;;;;;;4955477;28;20217;-74
2022/01/10 16:45:02;;;;;;;25.73;13.37;;;2.60;99.90;;;;;;4955175;28;20173;-73
2022/01/10 16:47:30;;;;;;;31.80;14.20;;;2.60;99.90;;;;;;4955960;28;20427;-74
2022/01/10 16:49:56;;;;;;;26.57;14.10;;;2.50;99.90;;;;;;4955568;28;20464;-73
2022/01/10 16:52:22;;;;;;;31.90;15.30;;;2.40;99.90;;;;;;4955855;28;20437;-74
2022/01/10 16:54:50;;;;;;;29.67;14.33;;;2.40;99.90;;;;;;4955091;28;20919;-74
2022/01/10 16:57:15;;;;;;;36.17;15.43;;;2.40;99.90;;;;;;4955650;28;20491;-74
2022/01/10 16:59:41;;;;;;;32.03;15.13;;;2.30;99.90;;;;;;4955683;28;20428;-74
2022/01/10 17:02:07;;;;;;;23.60;14.23;;;2.20;99.90;;;;;;4955137;28;20480;-74
2022/01/10 17:04:33;;;;;;;31.17;14.87;;;2.20;99.90;;;;;;4955332;29;20201;-74
2022/01/10 17:06:58;;;;;;;31.37;14.90;;;2.10;99.90;;;;;;4955270;29;20192;-74